createdAt,value
2023-04-08T00:00:31.956Z,20.79
2023-04-08T00:03:17.285Z,20.80
2023-04-08T00:06:04.005Z,20.77
2023-04-08T00:08:49.521Z,20.79
2023-04-08T00:11:35.140Z,20.80
2023-04-08T00:14:20.291Z,20.77
2023-04-08T00:17:05.773Z,20.76
2023-04-08T00:19:51.892Z,20.76
2023-04-08T00:22:37.209Z,20.75
2023-04-08T00:25:24.779Z,20.74
2023-04-08T00:28:11.255Z,20.75
2023-04-08T00:30:57.444Z,20.74
2023-04-08T00:33:42.895Z,20.73
2023-04-08T00:36:29.709Z,20.73
2023-04-08T00:42:01.973Z,20.73
2023-04-08T00:44:48.125Z,20.71
2023-04-08T00:47:35.829Z,20.70
2023-04-08T00:50:21.544Z,20.71
2023-04-08T00:53:07.106Z,20.67
2023-04-08T00:55:52.418Z,20.68
2023-04-08T00:58:39.601Z,20.69
2023-04-08T01:01:40.511Z,20.68
2023-04-08T01:04:50.078Z,20.67
2023-04-08T01:07:41.581Z,20.64
2023-04-08T01:10:34.095Z,20.65
2023-04-08T01:13:23.863Z,20.64
2023-04-08T01:16:12.851Z,20.64
2023-04-08T01:18:58.544Z,20.64
2023-04-08T01:21:45.768Z,20.62
2023-04-08T01:24:36.545Z,20.62
2023-04-08T01:27:22.197Z,20.63
2023-04-08T01:30:08.430Z,20.62
2023-04-08T01:32:55.999Z,20.62
2023-04-08T01:35:41.858Z,20.61
2023-04-08T01:38:28.264Z,20.62
2023-04-08T01:41:13.490Z,20.62
2023-04-08T01:43:59.684Z,20.60
2023-04-08T01:46:45.782Z,20.60
2023-04-08T01:49:31.524Z,20.59
2023-04-08T01:52:22.570Z,20.60
2023-04-08T01:55:08.060Z,20.59
2023-04-08T01:57:56.267Z,20.57
2023-04-08T02:00:43.462Z,20.57
2023-04-08T02:03:35.824Z,20.57
2023-04-08T02:06:21.384Z,20.56
2023-04-08T02:09:08.347Z,20.56
2023-04-08T02:11:54.569Z,20.58
2023-04-08T02:14:39.887Z,20.58
2023-04-08T02:17:43.489Z,20.57
2023-04-08T02:20:40.036Z,20.54
2023-04-08T02:23:29.500Z,20.50
2023-04-08T02:26:16.468Z,20.50
2023-04-08T02:29:05.795Z,20.51
2023-04-08T02:31:52.179Z,20.52
2023-04-08T02:34:40.607Z,20.51
2023-04-08T02:37:26.334Z,20.53
2023-04-08T02:40:32.553Z,20.52
2023-04-08T02:43:17.822Z,20.53
2023-04-08T02:46:04.234Z,20.52
2023-04-08T02:48:50.126Z,20.51
2023-04-08T02:51:35.327Z,20.48
2023-04-08T02:54:20.733Z,20.48
2023-04-08T02:57:07.098Z,20.48
2023-04-08T02:59:52.348Z,20.49
2023-04-08T03:02:38.042Z,20.49
2023-04-08T03:05:24.510Z,20.49
2023-04-08T03:08:10.195Z,20.49
2023-04-08T03:10:55.452Z,20.48
2023-04-08T03:13:40.706Z,20.48
2023-04-08T03:16:26.364Z,20.47
2023-04-08T03:19:11.822Z,20.48
2023-04-08T03:21:57.041Z,20.46
2023-04-08T03:24:42.356Z,20.45
2023-04-08T03:27:27.757Z,20.45
2023-04-08T03:30:13.153Z,20.45
2023-04-08T03:32:58.823Z,20.45
2023-04-08T03:35:44.045Z,20.46
2023-04-08T03:38:29.474Z,20.48
2023-04-08T03:41:14.875Z,20.48
2023-04-08T03:44:00.060Z,20.48
2023-04-08T03:46:45.392Z,20.50
2023-04-08T03:49:30.751Z,20.50
2023-04-08T03:52:15.949Z,20.52
2023-04-08T03:55:01.230Z,20.52
2023-04-08T03:57:46.965Z,20.53
2023-04-08T04:00:32.241Z,20.53
2023-04-08T04:03:17.974Z,20.53
2023-04-08T04:06:03.661Z,20.54
2023-04-08T04:08:50.340Z,20.55
2023-04-08T04:11:36.045Z,20.57
2023-04-08T04:14:21.292Z,20.58
2023-04-08T04:17:06.656Z,20.57
2023-04-08T04:19:52.828Z,20.59
2023-04-08T04:22:38.212Z,20.61
2023-04-08T04:25:23.783Z,20.62
2023-04-08T04:28:10.083Z,20.63
2023-04-08T04:30:56.546Z,20.63
2023-04-08T04:33:42.030Z,20.63
2023-04-08T04:36:27.568Z,20.67
2023-04-08T04:39:12.840Z,20.69
2023-04-08T04:41:58.221Z,20.72
2023-04-08T04:44:43.448Z,20.77
2023-04-08T04:47:28.867Z,20.85
2023-04-08T04:50:14.102Z,20.90
2023-04-08T04:52:59.494Z,20.96
2023-04-08T04:55:44.858Z,21.02
2023-04-08T04:58:30.849Z,21.06
2023-04-08T05:01:16.519Z,21.10
2023-04-08T05:04:01.898Z,21.15
2023-04-08T05:06:47.158Z,21.20
2023-04-08T05:09:32.453Z,21.23
2023-04-08T05:12:18.410Z,21.30
2023-04-08T05:15:04.295Z,21.36
2023-04-08T05:17:49.588Z,21.39
2023-04-08T05:20:34.688Z,21.44
2023-04-08T05:23:19.935Z,21.50
2023-04-08T05:26:08.779Z,21.52
2023-04-08T05:28:54.269Z,21.56
2023-04-08T05:31:39.663Z,21.56
2023-04-08T05:34:24.963Z,21.59
2023-04-08T05:37:10.616Z,21.60
2023-04-08T05:39:56.549Z,21.61
2023-04-08T05:42:42.769Z,21.62
2023-04-08T05:45:28.950Z,21.65
2023-04-08T05:48:14.401Z,21.69
2023-04-08T05:50:59.589Z,21.73
2023-04-08T05:53:48.159Z,21.75
2023-04-08T05:56:33.508Z,21.76
2023-04-08T05:59:18.846Z,21.77
2023-04-08T06:02:04.497Z,21.77
2023-04-08T06:04:50.105Z,21.76
2023-04-08T06:07:35.357Z,21.78
2023-04-08T06:10:20.617Z,21.78
2023-04-08T06:13:05.979Z,21.78
2023-04-08T06:15:51.328Z,21.82
2023-04-08T06:18:37.121Z,21.81
2023-04-08T06:21:22.518Z,21.82
2023-04-08T06:24:07.945Z,21.80
2023-04-08T06:26:54.775Z,21.77
2023-04-08T06:29:43.455Z,21.76
2023-04-08T06:32:29.131Z,21.74
2023-04-08T06:35:15.918Z,21.76
2023-04-08T06:38:01.892Z,21.74
2023-04-08T06:40:47.486Z,21.73
2023-04-08T06:43:33.955Z,21.73
2023-04-08T06:46:19.766Z,21.73
2023-04-08T06:49:07.127Z,21.72
2023-04-08T06:51:52.612Z,21.71
2023-04-08T06:54:37.884Z,21.72
2023-04-08T06:57:23.153Z,21.74
2023-04-08T07:00:09.585Z,21.75
2023-04-08T07:02:55.097Z,21.73
2023-04-08T07:05:42.196Z,21.70
2023-04-08T07:08:27.687Z,21.68
2023-04-08T07:11:12.938Z,21.68
2023-04-08T07:13:58.507Z,21.66
2023-04-08T07:16:43.896Z,21.67
2023-04-08T07:19:29.102Z,21.65
2023-04-08T07:22:14.576Z,21.65
2023-04-08T07:24:59.685Z,21.63
2023-04-08T07:27:45.171Z,21.62
2023-04-08T07:30:30.666Z,21.62
2023-04-08T07:33:16.170Z,21.62
2023-04-08T07:36:02.096Z,21.61
2023-04-08T07:38:47.695Z,21.59
2023-04-08T07:41:33.470Z,21.58
2023-04-08T07:44:20.013Z,21.56
2023-04-08T07:47:05.849Z,21.54
2023-04-08T07:49:51.531Z,21.54
2023-04-08T07:52:36.775Z,21.54
2023-04-08T07:55:22.112Z,21.53
2023-04-08T07:58:07.391Z,21.56
2023-04-08T08:00:53.569Z,21.54
2023-04-08T08:03:39.670Z,21.53
2023-04-08T08:06:25.864Z,21.55
2023-04-08T08:09:11.417Z,21.55
2023-04-08T08:11:56.863Z,21.52
2023-04-08T08:14:42.156Z,21.51
2023-04-08T08:17:30.198Z,21.50
2023-04-08T08:20:15.482Z,21.50
2023-04-08T08:23:01.003Z,21.51
2023-04-08T08:25:46.583Z,21.51
2023-04-08T08:28:35.585Z,21.53
2023-04-08T08:31:20.868Z,21.58
2023-04-08T08:34:06.153Z,21.59
2023-04-08T08:36:51.300Z,21.59
2023-04-08T08:39:36.755Z,21.64
2023-04-08T08:42:23.445Z,21.65
2023-04-08T08:45:09.302Z,21.65
2023-04-08T08:47:54.742Z,21.65
2023-04-08T08:50:40.081Z,21.67
2023-04-08T08:53:33.454Z,21.67
2023-04-08T08:56:21.855Z,21.69
2023-04-08T08:59:07.517Z,21.73
2023-04-08T09:01:52.812Z,21.73
2023-04-08T09:04:38.188Z,21.74
2023-04-08T09:07:26.127Z,21.75
2023-04-08T09:10:11.864Z,21.75
2023-04-08T09:12:57.648Z,21.76
2023-04-08T09:16:18.047Z,21.78
2023-04-08T09:19:11.691Z,21.76
2023-04-08T09:22:07.621Z,21.76
2023-04-08T09:24:52.689Z,21.77
2023-04-08T09:27:38.063Z,21.77
2023-04-08T09:30:25.870Z,21.78
2023-04-08T09:33:11.830Z,21.77
2023-04-08T09:35:57.785Z,21.78
2023-04-08T09:38:43.926Z,21.78
2023-04-08T09:41:33.776Z,21.80
2023-04-08T09:44:21.203Z,21.85
2023-04-08T09:47:17.923Z,21.86
2023-04-08T09:50:07.092Z,21.86
2023-04-08T09:53:00.016Z,21.86
2023-04-08T09:55:51.406Z,21.85
2023-04-08T09:58:49.492Z,21.90
2023-04-08T10:01:40.403Z,21.95
2023-04-08T10:04:28.516Z,21.96
2023-04-08T10:07:15.681Z,22.00
2023-04-08T10:10:02.168Z,22.05
2023-04-08T10:12:48.992Z,22.06
2023-04-08T10:15:36.700Z,22.01
2023-04-08T10:18:22.315Z,21.99
2023-04-08T10:21:40.510Z,22.00
2023-04-08T10:24:26.113Z,21.99
2023-04-08T10:27:43.499Z,21.93
2023-04-08T10:30:29.172Z,21.94
2023-04-08T10:33:21.043Z,21.89
2023-04-08T10:36:15.112Z,21.88
2023-04-08T10:39:00.453Z,21.86
2023-04-08T10:41:47.528Z,21.85
2023-04-08T10:44:33.525Z,21.85
2023-04-08T10:47:26.086Z,21.84
2023-04-08T10:50:16.709Z,21.86
2023-04-08T10:53:02.461Z,21.85
2023-04-08T10:55:48.071Z,21.84
2023-04-08T10:58:34.474Z,21.83
2023-04-08T11:01:21.554Z,21.84
2023-04-08T11:04:23.734Z,21.84
2023-04-08T11:07:09.460Z,21.86
2023-04-08T11:09:55.977Z,21.89
2023-04-08T11:12:41.812Z,21.89
2023-04-08T11:15:30.532Z,21.88
2023-04-08T11:18:17.188Z,21.89
2023-04-08T11:21:03.461Z,21.90
2023-04-08T11:23:53.546Z,21.92
2023-04-08T11:26:40.675Z,21.91
2023-04-08T11:29:26.211Z,21.89
2023-04-08T11:32:11.667Z,21.90
2023-04-08T11:35:00.148Z,21.89
2023-04-08T11:37:47.838Z,21.87
2023-04-08T11:40:33.033Z,21.86
2023-04-08T11:43:18.316Z,21.87
2023-04-08T11:46:13.313Z,21.86
2023-04-08T11:49:04.387Z,21.92
2023-04-08T11:52:02.349Z,22.05
2023-04-08T11:54:48.626Z,22.15
2023-04-08T11:57:34.332Z,22.16
2023-04-08T12:00:20.538Z,22.12
2023-04-08T12:03:06.592Z,22.09
2023-04-08T12:05:52.229Z,22.06
2023-04-08T12:08:38.159Z,22.01
2023-04-08T12:11:23.868Z,21.99
2023-04-08T12:14:10.373Z,21.96
2023-04-08T12:16:55.815Z,21.90
2023-04-08T12:19:41.281Z,21.86
2023-04-08T12:22:26.910Z,21.83
2023-04-08T12:25:12.537Z,21.80
2023-04-08T12:27:58.493Z,21.78
2023-04-08T12:30:44.098Z,21.76
2023-04-08T12:33:29.491Z,21.76
2023-04-08T12:36:15.522Z,21.76
2023-04-08T12:39:00.625Z,21.78
2023-04-08T12:41:45.914Z,21.83
2023-04-08T12:44:31.184Z,21.87
2023-04-08T12:47:16.743Z,21.87
2023-04-08T12:50:02.241Z,21.90
2023-04-08T12:52:47.777Z,21.90
2023-04-08T12:55:33.169Z,21.96
2023-04-08T12:58:19.497Z,22.00
2023-04-08T13:01:06.405Z,22.08
2023-04-08T13:03:52.011Z,22.11
2023-04-08T13:06:37.736Z,22.15
2023-04-08T13:09:23.294Z,22.20
2023-04-08T13:12:09.054Z,22.26
2023-04-08T13:14:55.242Z,22.28
2023-04-08T13:17:40.605Z,22.31
2023-04-08T13:20:26.311Z,22.34
2023-04-08T13:23:12.053Z,22.34
2023-04-08T13:25:57.469Z,22.35
2023-04-08T13:28:55.886Z,22.35
2023-04-08T13:31:42.710Z,22.35
2023-04-08T13:34:28.159Z,22.37
2023-04-08T13:37:13.560Z,22.37
2023-04-08T13:39:58.895Z,22.35
2023-04-08T13:42:44.259Z,22.27
2023-04-08T13:45:29.640Z,22.29
2023-04-08T13:48:15.847Z,22.30
2023-04-08T13:51:01.399Z,22.30
2023-04-08T13:53:51.107Z,22.34
2023-04-08T13:56:36.608Z,22.34
2023-04-08T13:59:22.420Z,22.32
2023-04-08T14:02:08.250Z,22.33
2023-04-08T14:04:53.743Z,22.35
2023-04-08T14:07:39.449Z,22.33
2023-04-08T14:10:24.662Z,22.32
2023-04-08T14:13:10.037Z,22.31
2023-04-08T14:15:58.594Z,22.31
2023-04-08T14:18:44.330Z,22.31
2023-04-08T14:21:30.006Z,22.29
2023-04-08T14:24:15.750Z,22.28
2023-04-08T14:27:00.901Z,22.30
2023-04-08T14:29:46.323Z,22.33
2023-04-08T14:32:32.205Z,22.33
2023-04-08T14:35:17.976Z,22.35
2023-04-08T14:38:03.111Z,22.35
2023-04-08T14:40:48.691Z,22.37
2023-04-08T14:43:35.560Z,22.37
2023-04-08T14:46:21.743Z,22.36
2023-04-08T14:49:07.674Z,22.33
2023-04-08T14:51:53.482Z,22.30
2023-04-08T14:54:39.346Z,22.25
2023-04-08T14:57:24.562Z,22.24
2023-04-08T15:00:10.285Z,22.24
2023-04-08T15:02:56.035Z,22.21
2023-04-08T15:05:42.813Z,22.22
2023-04-08T15:08:28.799Z,22.22
2023-04-08T15:11:14.932Z,22.23
2023-04-08T15:14:00.684Z,22.23
2023-04-08T15:16:46.254Z,22.23
2023-04-08T15:19:31.845Z,22.22
2023-04-08T15:22:18.346Z,22.24
2023-04-08T15:25:05.272Z,22.23
2023-04-08T15:27:50.825Z,22.23
2023-04-08T15:30:36.663Z,22.25
2023-04-08T15:33:22.289Z,22.24
2023-04-08T15:36:08.142Z,22.23
2023-04-08T15:38:53.878Z,22.24
2023-04-08T15:41:40.582Z,22.25
2023-04-08T15:44:25.785Z,22.25
2023-04-08T15:47:11.157Z,22.24
2023-04-08T15:49:56.396Z,22.22
2023-04-08T15:52:41.932Z,22.24
2023-04-08T15:55:27.551Z,22.22
2023-04-08T15:58:12.928Z,22.20
2023-04-08T16:00:58.307Z,22.18
2023-04-08T16:03:43.730Z,22.17
2023-04-08T16:06:29.482Z,22.15
2023-04-08T16:09:16.741Z,22.17
2023-04-08T16:12:07.226Z,22.14
2023-04-08T16:14:55.570Z,22.12
2023-04-08T16:17:40.960Z,22.13
2023-04-08T16:20:27.079Z,22.11
2023-04-08T16:23:15.529Z,22.08
2023-04-08T16:29:27.911Z,22.06
2023-04-08T16:32:13.261Z,22.06
2023-04-08T16:34:58.648Z,22.01
2023-04-08T16:37:43.982Z,22.03
2023-04-08T16:40:33.209Z,21.99
2023-04-08T16:43:18.522Z,21.97
2023-04-08T16:46:16.289Z,21.95
2023-04-08T16:49:02.450Z,21.95
2023-04-08T16:51:47.787Z,21.94
2023-04-08T16:54:33.198Z,21.93
2023-04-08T16:57:19.080Z,21.91
2023-04-08T17:00:06.095Z,21.92
2023-04-08T17:02:53.181Z,21.90
2023-04-08T17:05:39.325Z,21.90
2023-04-08T17:08:26.031Z,21.87
2023-04-08T17:11:13.626Z,21.84
2023-04-08T17:13:59.799Z,21.80
2023-04-08T17:16:45.095Z,21.78
2023-04-08T17:19:31.143Z,21.76
2023-04-08T17:22:16.823Z,21.73
2023-04-08T17:25:02.131Z,21.71
2023-04-08T17:27:47.258Z,21.65
2023-04-08T17:30:32.689Z,21.62
2023-04-08T17:33:18.083Z,21.61
2023-04-08T17:36:03.729Z,21.57
2023-04-08T17:38:49.399Z,21.56
2023-04-08T17:41:40.359Z,21.53
2023-04-08T17:44:30.045Z,21.52
2023-04-08T17:47:16.002Z,21.55
2023-04-08T17:50:01.682Z,21.55
2023-04-08T17:52:47.811Z,21.58
2023-04-08T17:55:33.582Z,21.58
2023-04-08T17:58:18.713Z,21.61
2023-04-08T18:01:04.381Z,21.64
2023-04-08T18:03:51.718Z,21.64
2023-04-08T18:06:37.675Z,21.64
2023-04-08T18:09:22.973Z,21.65
2023-04-08T18:12:08.172Z,21.68
2023-04-08T18:14:53.477Z,21.69
2023-04-08T18:17:38.896Z,21.72
2023-04-08T18:20:24.378Z,21.73
2023-04-08T18:23:09.739Z,21.72
2023-04-08T18:25:54.983Z,21.75
2023-04-08T18:28:40.724Z,21.75
2023-04-08T18:31:26.431Z,21.75
2023-04-08T18:34:11.763Z,21.76
2023-04-08T18:36:58.278Z,21.79
2023-04-08T18:39:43.749Z,21.83
2023-04-08T18:42:30.271Z,21.84
2023-04-08T18:45:15.899Z,21.85
2023-04-08T18:48:01.502Z,21.88
2023-04-08T18:50:46.926Z,21.91
2023-04-08T18:53:32.522Z,21.94
2023-04-08T18:56:19.817Z,21.97
2023-04-08T18:59:05.899Z,22.00
2023-04-08T19:01:51.776Z,22.01
2023-04-08T19:04:38.596Z,22.05
2023-04-08T19:07:24.327Z,22.09
2023-04-08T19:10:10.336Z,22.10
2023-04-08T19:12:57.344Z,22.15
2023-04-08T19:15:43.656Z,22.13
2023-04-08T19:18:29.059Z,22.15
2023-04-08T19:21:15.414Z,22.17
2023-04-08T19:24:06.466Z,22.18
2023-04-08T19:26:55.576Z,22.20
2023-04-08T19:29:42.164Z,22.23
2023-04-08T19:32:30.535Z,22.23
2023-04-08T19:35:18.103Z,22.23
2023-04-08T19:38:06.672Z,22.23
2023-04-08T19:40:53.109Z,22.23
2023-04-08T19:43:39.480Z,22.26
2023-04-08T19:46:32.880Z,22.24
2023-04-08T19:49:19.871Z,22.20
2023-04-08T19:52:08.325Z,22.17
2023-04-08T19:54:53.849Z,22.11
2023-04-08T19:57:39.357Z,22.06
2023-04-08T20:00:25.999Z,22.01
2023-04-08T20:03:13.794Z,21.97
2023-04-08T20:05:59.438Z,21.93
2023-04-08T20:08:45.633Z,21.90
2023-04-08T20:11:33.794Z,21.89
2023-04-08T20:14:19.156Z,21.87
2023-04-08T20:17:04.549Z,21.84
2023-04-08T20:19:50.249Z,21.83
2023-04-08T20:22:35.896Z,21.79
2023-04-08T20:25:22.740Z,21.77
2023-04-08T20:28:08.421Z,21.74
2023-04-08T20:30:54.174Z,21.69
2023-04-08T20:33:45.502Z,21.68
2023-04-08T20:36:32.867Z,21.65
2023-04-08T20:39:18.389Z,21.64
2023-04-08T20:42:05.402Z,21.61
2023-04-08T20:44:51.287Z,21.56
2023-04-08T20:47:36.561Z,21.56
2023-04-08T20:50:21.987Z,21.54
2023-04-08T20:53:08.442Z,21.53
2023-04-08T20:55:53.881Z,21.52
2023-04-08T20:58:40.172Z,21.54
2023-04-08T21:01:26.127Z,21.53
2023-04-08T21:04:12.379Z,21.53
2023-04-08T21:06:57.870Z,21.53
2023-04-08T21:09:43.152Z,21.53
2023-04-08T21:12:28.498Z,21.52
2023-04-08T21:15:13.797Z,21.51
2023-04-08T21:17:59.408Z,21.51
2023-04-08T21:20:45.337Z,21.51
2023-04-08T21:23:31.013Z,21.51
2023-04-08T21:26:16.544Z,21.50
2023-04-08T21:29:01.888Z,21.50
2023-04-08T21:31:47.409Z,21.49
2023-04-08T21:34:32.768Z,21.50
2023-04-08T21:37:17.992Z,21.49
2023-04-08T21:40:04.232Z,21.47
2023-04-08T21:42:49.392Z,21.47
2023-04-08T21:45:34.559Z,21.46
2023-04-08T21:48:20.931Z,21.46
2023-04-08T21:51:06.992Z,21.45
2023-04-08T21:53:52.741Z,21.45
2023-04-08T21:56:38.724Z,21.44
2023-04-08T21:59:24.199Z,21.43
2023-04-08T22:02:11.563Z,21.42
2023-04-08T22:04:58.426Z,21.42
2023-04-08T22:07:43.785Z,21.41
2023-04-08T22:10:29.202Z,21.40
2023-04-08T22:13:17.388Z,21.39
2023-04-08T22:16:02.487Z,21.39
2023-04-08T22:18:47.786Z,21.37
2023-04-08T22:21:33.069Z,21.38
2023-04-08T22:24:19.319Z,21.36
2023-04-08T22:27:04.784Z,21.36
2023-04-08T22:29:50.033Z,21.35
2023-04-08T22:32:35.644Z,21.34
2023-04-08T22:35:21.475Z,21.36
2023-04-08T22:38:07.002Z,21.37
2023-04-08T22:40:52.186Z,21.37
2023-04-08T22:43:37.511Z,21.35
2023-04-08T22:46:22.911Z,21.34
2023-04-08T22:49:08.459Z,21.35
2023-04-08T22:51:53.865Z,21.34
2023-04-08T22:54:39.088Z,21.34
2023-04-08T22:57:24.608Z,21.34
2023-04-08T23:00:10.501Z,21.32
2023-04-08T23:02:57.828Z,21.32
2023-04-08T23:05:43.642Z,21.31
2023-04-08T23:08:28.869Z,21.30
2023-04-08T23:11:14.109Z,21.30
2023-04-08T23:13:59.403Z,21.29
2023-04-08T23:16:44.510Z,21.29
2023-04-08T23:19:30.044Z,21.28
2023-04-08T23:22:15.538Z,21.28
2023-04-08T23:25:01.217Z,21.27
2023-04-08T23:27:46.648Z,21.25
2023-04-08T23:30:31.893Z,21.25
2023-04-08T23:33:17.315Z,21.24
2023-04-08T23:36:10.237Z,21.24
2023-04-08T23:38:55.517Z,21.23
2023-04-08T23:41:40.889Z,21.24
2023-04-08T23:44:26.225Z,21.23
2023-04-08T23:47:11.492Z,21.22
2023-04-08T23:49:56.944Z,21.22
2023-04-08T23:52:42.575Z,21.22
2023-04-08T23:55:28.123Z,21.20
2023-04-08T23:58:13.752Z,21.19
